sensor_id;sensor_type;location;lat;lon;timestamp;P1;durP1;ratioP1;P2;durP2;ratioP2
78858;SDS011;68210;52.032;4.634;2024-01-30T00:00:31;21.52;;;11.27;;
78858;SDS011;68210;52.032;4.634;2024-01-30T00:02:32;20.00;;;10.98;;
78858;SDS011;68210;52.032;4.634;2024-01-30T00:04:32;18.27;;;11.13;;
78858;SDS011;68210;52.032;4.634;2024-01-30T00:06:33;19.45;;;10.82;;
78858;SDS011;68210;52.032;4.634;2024-01-30T00:08:33;18.65;;;10.88;;
78858;SDS011;68210;52.032;4.634;2024-01-30T00:10:34;21.00;;;10.88;;
78858;SDS011;68210;52.032;4.634;2024-01-30T00:12:34;20.38;;;11.07;;
78858;SDS011;68210;52.032;4.634;2024-01-30T00:14:35;21.90;;;11.48;;
78858;SDS011;68210;52.032;4.634;2024-01-30T00:16:35;20.40;;;11.43;;
78858;SDS011;68210;52.032;4.634;2024-01-30T00:18:35;24.52;;;13.75;;
78858;SDS011;68210;52.032;4.634;2024-01-30T00:20:36;19.83;;;12.25;;
78858;SDS011;68210;52.032;4.634;2024-01-30T00:22:37;19.20;;;11.90;;
78858;SDS011;68210;52.032;4.634;2024-01-30T00:24:37;25.50;;;12.40;;
78858;SDS011;68210;52.032;4.634;2024-01-30T00:26:37;21.60;;;12.10;;
78858;SDS011;68210;52.032;4.634;2024-01-30T00:28:38;24.67;;;12.60;;
78858;SDS011;68210;52.032;4.634;2024-01-30T00:30:38;18.45;;;10.77;;
78858;SDS011;68210;52.032;4.634;2024-01-30T00:32:39;18.35;;;11.18;;
78858;SDS011;68210;52.032;4.634;2024-01-30T00:34:39;19.85;;;11.30;;
78858;SDS011;68210;52.032;4.634;2024-01-30T00:36:39;22.27;;;11.30;;
78858;SDS011;68210;52.032;4.634;2024-01-30T00:38:40;21.75;;;11.73;;
78858;SDS011;68210;52.032;4.634;2024-01-30T00:40:40;21.40;;;11.25;;
78858;SDS011;68210;52.032;4.634;2024-01-30T00:42:41;18.27;;;10.98;;
78858;SDS011;68210;52.032;4.634;2024-01-30T00:44:42;20.17;;;11.45;;
78858;SDS011;68210;52.032;4.634;2024-01-30T00:46:42;20.73;;;11.10;;
78858;SDS011;68210;52.032;4.634;2024-01-30T00:48:43;17.67;;;10.45;;
78858;SDS011;68210;52.032;4.634;2024-01-30T00:50:43;20.40;;;11.13;;
78858;SDS011;68210;52.032;4.634;2024-01-30T00:52:44;21.90;;;11.63;;
78858;SDS011;68210;52.032;4.634;2024-01-30T00:54:45;20.35;;;11.73;;
78858;SDS011;68210;52.032;4.634;2024-01-30T00:56:45;21.67;;;11.85;;
78858;SDS011;68210;52.032;4.634;2024-01-30T00:58:45;18.85;;;11.07;;
78858;SDS011;68210;52.032;4.634;2024-01-30T01:00:48;19.13;;;10.35;;
78858;SDS011;68210;52.032;4.634;2024-01-30T01:02:48;20.70;;;10.35;;
78858;SDS011;68210;52.032;4.634;2024-01-30T01:04:49;18.13;;;10.20;;
78858;SDS011;68210;52.032;4.634;2024-01-30T01:06:50;18.40;;;10.43;;
78858;SDS011;68210;52.032;4.634;2024-01-30T01:08:50;18.33;;;10.90;;
78858;SDS011;68210;52.032;4.634;2024-01-30T01:10:50;18.83;;;10.52;;
78858;SDS011;68210;52.032;4.634;2024-01-30T01:12:51;19.85;;;11.32;;
78858;SDS011;68210;52.032;4.634;2024-01-30T01:14:51;18.20;;;10.35;;
78858;SDS011;68210;52.032;4.634;2024-01-30T01:16:51;18.60;;;11.00;;
78858;SDS011;68210;52.032;4.634;2024-01-30T01:18:52;17.63;;;9.88;;
78858;SDS011;68210;52.032;4.634;2024-01-30T01:20:52;18.17;;;10.30;;
78858;SDS011;68210;52.032;4.634;2024-01-30T01:22:52;17.67;;;10.90;;
78858;SDS011;68210;52.032;4.634;2024-01-30T01:24:53;16.58;;;9.70;;
78858;SDS011;68210;52.032;4.634;2024-01-30T01:26:53;18.98;;;9.70;;
78858;SDS011;68210;52.032;4.634;2024-01-30T01:28:54;20.63;;;9.82;;
78858;SDS011;68210;52.032;4.634;2024-01-30T01:30:54;15.30;;;10.00;;
78858;SDS011;68210;52.032;4.634;2024-01-30T01:32:59;17.75;;;9.52;;
78858;SDS011;68210;52.032;4.634;2024-01-30T01:35:02;18.38;;;9.57;;
78858;SDS011;68210;52.032;4.634;2024-01-30T01:37:03;19.77;;;10.15;;
78858;SDS011;68210;52.032;4.634;2024-01-30T01:39:04;21.58;;;10.23;;
78858;SDS011;68210;52.032;4.634;2024-01-30T01:41:05;15.50;;;9.38;;
78858;SDS011;68210;52.032;4.634;2024-01-30T01:43:05;15.60;;;9.48;;
78858;SDS011;68210;52.032;4.634;2024-01-30T01:45:06;17.30;;;9.32;;
78858;SDS011;68210;52.032;4.634;2024-01-30T01:47:07;19.70;;;9.93;;
78858;SDS011;68210;52.032;4.634;2024-01-30T01:49:07;18.80;;;10.02;;
78858;SDS011;68210;52.032;4.634;2024-01-30T01:51:08;15.50;;;9.32;;
78858;SDS011;68210;52.032;4.634;2024-01-30T01:53:09;18.60;;;9.90;;
78858;SDS011;68210;52.032;4.634;2024-01-30T01:55:10;19.17;;;9.90;;
78858;SDS011;68210;52.032;4.634;2024-01-30T01:57:12;17.23;;;9.98;;
78858;SDS011;68210;52.032;4.634;2024-01-30T01:59:15;20.33;;;10.80;;
78858;SDS011;68210;52.032;4.634;2024-01-30T02:01:16;20.05;;;10.43;;
78858;SDS011;68210;52.032;4.634;2024-01-30T02:03:18;21.17;;;9.65;;
78858;SDS011;68210;52.032;4.634;2024-01-30T02:05:21;19.92;;;10.35;;
78858;SDS011;68210;52.032;4.634;2024-01-30T02:07:21;21.42;;;10.25;;
78858;SDS011;68210;52.032;4.634;2024-01-30T02:09:22;16.60;;;9.88;;
78858;SDS011;68210;52.032;4.634;2024-01-30T02:11:22;17.48;;;9.35;;
78858;SDS011;68210;52.032;4.634;2024-01-30T02:13:23;16.95;;;8.85;;
78858;SDS011;68210;52.032;4.634;2024-01-30T02:15:24;18.88;;;10.52;;
78858;SDS011;68210;52.032;4.634;2024-01-30T02:17:24;18.25;;;9.70;;
78858;SDS011;68210;52.032;4.634;2024-01-30T02:19:24;19.00;;;10.82;;
78858;SDS011;68210;52.032;4.634;2024-01-30T02:21:25;17.85;;;9.45;;
78858;SDS011;68210;52.032;4.634;2024-01-30T02:23:25;17.67;;;9.88;;
78858;SDS011;68210;52.032;4.634;2024-01-30T02:25:39;19.15;;;9.60;;
78858;SDS011;68210;52.032;4.634;2024-01-30T02:27:46;17.30;;;8.85;;
78858;SDS011;68210;52.032;4.634;2024-01-30T02:29:46;21.02;;;9.90;;
78858;SDS011;68210;52.032;4.634;2024-01-30T02:31:46;18.52;;;9.80;;
78858;SDS011;68210;52.032;4.634;2024-01-30T02:33:47;17.33;;;9.82;;
78858;SDS011;68210;52.032;4.634;2024-01-30T02:35:47;22.08;;;9.48;;
78858;SDS011;68210;52.032;4.634;2024-01-30T02:37:48;17.58;;;9.52;;
78858;SDS011;68210;52.032;4.634;2024-01-30T02:39:48;13.82;;;8.93;;
78858;SDS011;68210;52.032;4.634;2024-01-30T02:41:48;15.80;;;9.32;;
78858;SDS011;68210;52.032;4.634;2024-01-30T02:43:49;18.27;;;9.65;;
78858;SDS011;68210;52.032;4.634;2024-01-30T02:45:49;21.27;;;10.63;;
78858;SDS011;68210;52.032;4.634;2024-01-30T02:47:49;16.80;;;10.23;;
78858;SDS011;68210;52.032;4.634;2024-01-30T02:49:50;17.60;;;9.20;;
78858;SDS011;68210;52.032;4.634;2024-01-30T02:51:51;18.17;;;9.10;;
78858;SDS011;68210;52.032;4.634;2024-01-30T02:53:51;23.70;;;9.88;;
78858;SDS011;68210;52.032;4.634;2024-01-30T02:55:52;19.20;;;10.45;;
78858;SDS011;68210;52.032;4.634;2024-01-30T02:57:52;17.27;;;9.95;;
78858;SDS011;68210;52.032;4.634;2024-01-30T02:59:52;17.20;;;9.40;;
78858;SDS011;68210;52.032;4.634;2024-01-30T03:01:53;16.77;;;9.13;;
78858;SDS011;68210;52.032;4.634;2024-01-30T03:03:53;16.85;;;8.95;;
78858;SDS011;68210;52.032;4.634;2024-01-30T03:05:53;15.27;;;8.93;;
78858;SDS011;68210;52.032;4.634;2024-01-30T03:07:54;21.35;;;10.10;;
78858;SDS011;68210;52.032;4.634;2024-01-30T03:09:54;13.68;;;8.60;;
78858;SDS011;68210;52.032;4.634;2024-01-30T03:11:55;14.52;;;8.50;;
78858;SDS011;68210;52.032;4.634;2024-01-30T03:13:55;16.15;;;9.35;;
78858;SDS011;68210;52.032;4.634;2024-01-30T03:15:56;16.70;;;9.18;;
78858;SDS011;68210;52.032;4.634;2024-01-30T03:17:56;15.73;;;9.50;;
78858;SDS011;68210;52.032;4.634;2024-01-30T03:19:57;18.55;;;9.48;;
78858;SDS011;68210;52.032;4.634;2024-01-30T03:21:57;13.88;;;9.07;;
78858;SDS011;68210;52.032;4.634;2024-01-30T03:23:58;19.15;;;7.82;;
78858;SDS011;68210;52.032;4.634;2024-01-30T03:25:59;15.63;;;9.15;;
78858;SDS011;68210;52.032;4.634;2024-01-30T03:27:59;17.55;;;9.73;;
78858;SDS011;68210;52.032;4.634;2024-01-30T03:30:00;18.80;;;9.55;;
78858;SDS011;68210;52.032;4.634;2024-01-30T03:32:00;20.77;;;10.50;;
78858;SDS011;68210;52.032;4.634;2024-01-30T03:34:01;14.38;;;8.70;;
78858;SDS011;68210;52.032;4.634;2024-01-30T03:36:04;18.15;;;9.02;;
78858;SDS011;68210;52.032;4.634;2024-01-30T03:38:05;15.82;;;9.27;;
78858;SDS011;68210;52.032;4.634;2024-01-30T03:40:06;19.40;;;9.32;;
78858;SDS011;68210;52.032;4.634;2024-01-30T03:42:07;18.02;;;9.52;;
78858;SDS011;68210;52.032;4.634;2024-01-30T03:44:07;15.20;;;9.40;;
78858;SDS011;68210;52.032;4.634;2024-01-30T03:46:08;17.83;;;9.00;;
78858;SDS011;68210;52.032;4.634;2024-01-30T03:48:08;15.32;;;8.93;;
78858;SDS011;68210;52.032;4.634;2024-01-30T03:50:08;19.42;;;8.75;;
78858;SDS011;68210;52.032;4.634;2024-01-30T03:52:09;16.65;;;9.82;;
78858;SDS011;68210;52.032;4.634;2024-01-30T03:54:09;15.98;;;8.65;;
78858;SDS011;68210;52.032;4.634;2024-01-30T03:56:10;17.92;;;8.15;;
78858;SDS011;68210;52.032;4.634;2024-01-30T03:58:10;15.05;;;9.55;;
78858;SDS011;68210;52.032;4.634;2024-01-30T04:00:10;16.00;;;8.15;;
78858;SDS011;68210;52.032;4.634;2024-01-30T04:02:11;15.95;;;8.57;;
78858;SDS011;68210;52.032;4.634;2024-01-30T04:04:12;14.27;;;8.57;;
78858;SDS011;68210;52.032;4.634;2024-01-30T04:06:12;15.75;;;8.02;;
78858;SDS011;68210;52.032;4.634;2024-01-30T04:08:13;13.30;;;8.23;;
78858;SDS011;68210;52.032;4.634;2024-01-30T04:10:13;15.63;;;8.32;;
78858;SDS011;68210;52.032;4.634;2024-01-30T04:12:13;13.15;;;7.93;;
78858;SDS011;68210;52.032;4.634;2024-01-30T04:14:14;12.93;;;7.70;;
78858;SDS011;68210;52.032;4.634;2024-01-30T04:16:20;12.05;;;7.72;;
78858;SDS011;68210;52.032;4.634;2024-01-30T04:18:22;15.13;;;8.88;;
78858;SDS011;68210;52.032;4.634;2024-01-30T04:20:22;14.27;;;8.15;;
78858;SDS011;68210;52.032;4.634;2024-01-30T04:22:22;17.23;;;8.48;;
78858;SDS011;68210;52.032;4.634;2024-01-30T04:24:23;15.73;;;7.78;;
78858;SDS011;68210;52.032;4.634;2024-01-30T04:26:23;14.55;;;8.50;;
78858;SDS011;68210;52.032;4.634;2024-01-30T04:28:23;16.83;;;8.75;;
78858;SDS011;68210;52.032;4.634;2024-01-30T04:30:24;13.57;;;8.07;;
78858;SDS011;68210;52.032;4.634;2024-01-30T04:32:24;15.20;;;8.55;;
78858;SDS011;68210;52.032;4.634;2024-01-30T04:34:24;13.32;;;7.10;;
78858;SDS011;68210;52.032;4.634;2024-01-30T04:36:25;15.93;;;9.32;;
78858;SDS011;68210;52.032;4.634;2024-01-30T04:38:25;12.25;;;7.57;;
78858;SDS011;68210;52.032;4.634;2024-01-30T04:40:25;13.05;;;7.82;;
78858;SDS011;68210;52.032;4.634;2024-01-30T04:42:26;12.88;;;7.38;;
78858;SDS011;68210;52.032;4.634;2024-01-30T04:44:26;13.75;;;7.68;;
78858;SDS011;68210;52.032;4.634;2024-01-30T04:46:27;14.32;;;7.57;;
78858;SDS011;68210;52.032;4.634;2024-01-30T04:48:28;16.08;;;8.05;;
78858;SDS011;68210;52.032;4.634;2024-01-30T04:50:28;13.63;;;8.25;;
78858;SDS011;68210;52.032;4.634;2024-01-30T04:52:29;15.30;;;8.70;;
78858;SDS011;68210;52.032;4.634;2024-01-30T04:54:30;17.10;;;8.05;;
78858;SDS011;68210;52.032;4.634;2024-01-30T04:56:30;13.63;;;9.32;;
78858;SDS011;68210;52.032;4.634;2024-01-30T04:58:31;15.07;;;7.93;;
78858;SDS011;68210;52.032;4.634;2024-01-30T05:00:31;14.55;;;8.43;;
78858;SDS011;68210;52.032;4.634;2024-01-30T05:02:32;16.90;;;8.75;;
78858;SDS011;68210;52.032;4.634;2024-01-30T05:04:32;15.68;;;9.20;;
78858;SDS011;68210;52.032;4.634;2024-01-30T05:06:33;15.43;;;8.50;;
78858;SDS011;68210;52.032;4.634;2024-01-30T05:08:33;17.40;;;8.30;;
78858;SDS011;68210;52.032;4.634;2024-01-30T05:10:36;16.20;;;8.98;;
78858;SDS011;68210;52.032;4.634;2024-01-30T05:12:38;18.23;;;8.45;;
78858;SDS011;68210;52.032;4.634;2024-01-30T05:14:38;16.80;;;8.40;;
78858;SDS011;68210;52.032;4.634;2024-01-30T05:16:39;12.60;;;8.20;;
78858;SDS011;68210;52.032;4.634;2024-01-30T05:18:39;13.77;;;8.10;;
78858;SDS011;68210;52.032;4.634;2024-01-30T05:20:40;15.77;;;8.38;;
78858;SDS011;68210;52.032;4.634;2024-01-30T05:22:40;14.80;;;8.60;;
78858;SDS011;68210;52.032;4.634;2024-01-30T05:24:44;13.07;;;8.23;;
78858;SDS011;68210;52.032;4.634;2024-01-30T05:26:45;14.85;;;8.13;;
78858;SDS011;68210;52.032;4.634;2024-01-30T05:28:45;13.38;;;8.23;;
78858;SDS011;68210;52.032;4.634;2024-01-30T05:30:46;14.00;;;7.70;;
78858;SDS011;68210;52.032;4.634;2024-01-30T05:32:46;14.38;;;8.32;;
78858;SDS011;68210;52.032;4.634;2024-01-30T05:34:47;14.90;;;7.63;;
78858;SDS011;68210;52.032;4.634;2024-01-30T05:36:47;13.88;;;7.57;;
78858;SDS011;68210;52.032;4.634;2024-01-30T05:38:47;13.73;;;7.30;;
78858;SDS011;68210;52.032;4.634;2024-01-30T05:40:48;13.95;;;8.25;;
78858;SDS011;68210;52.032;4.634;2024-01-30T05:42:48;13.48;;;7.45;;
78858;SDS011;68210;52.032;4.634;2024-01-30T05:44:48;12.05;;;7.68;;
78858;SDS011;68210;52.032;4.634;2024-01-30T05:46:49;13.13;;;7.75;;
78858;SDS011;68210;52.032;4.634;2024-01-30T05:48:50;12.20;;;7.10;;
78858;SDS011;68210;52.032;4.634;2024-01-30T05:50:50;12.95;;;8.40;;
78858;SDS011;68210;52.032;4.634;2024-01-30T05:52:51;16.48;;;8.02;;
78858;SDS011;68210;52.032;4.634;2024-01-30T05:54:51;13.35;;;7.68;;
78858;SDS011;68210;52.032;4.634;2024-01-30T05:56:51;13.75;;;7.88;;
78858;SDS011;68210;52.032;4.634;2024-01-30T05:58:52;11.43;;;6.38;;
78858;SDS011;68210;52.032;4.634;2024-01-30T06:00:52;12.82;;;7.00;;
78858;SDS011;68210;52.032;4.634;2024-01-30T06:02:54;11.68;;;7.15;;
78858;SDS011;68210;52.032;4.634;2024-01-30T06:04:54;14.20;;;7.90;;
78858;SDS011;68210;52.032;4.634;2024-01-30T06:06:55;15.23;;;7.80;;
78858;SDS011;68210;52.032;4.634;2024-01-30T06:08:55;11.95;;;7.60;;
78858;SDS011;68210;52.032;4.634;2024-01-30T06:10:56;12.60;;;7.35;;
78858;SDS011;68210;52.032;4.634;2024-01-30T06:12:56;12.00;;;7.50;;
78858;SDS011;68210;52.032;4.634;2024-01-30T06:14:56;11.73;;;7.28;;
78858;SDS011;68210;52.032;4.634;2024-01-30T06:16:57;13.43;;;7.43;;
78858;SDS011;68210;52.032;4.634;2024-01-30T06:18:57;11.38;;;7.32;;
78858;SDS011;68210;52.032;4.634;2024-01-30T06:20:59;12.60;;;7.25;;
78858;SDS011;68210;52.032;4.634;2024-01-30T06:22:59;13.13;;;7.10;;
78858;SDS011;68210;52.032;4.634;2024-01-30T06:24:59;15.00;;;8.00;;
78858;SDS011;68210;52.032;4.634;2024-01-30T06:27:01;10.73;;;6.72;;
78858;SDS011;68210;52.032;4.634;2024-01-30T06:29:02;12.57;;;7.55;;
78858;SDS011;68210;52.032;4.634;2024-01-30T06:31:02;12.68;;;6.97;;
78858;SDS011;68210;52.032;4.634;2024-01-30T06:33:03;11.32;;;6.43;;
78858;SDS011;68210;52.032;4.634;2024-01-30T06:35:03;14.80;;;8.20;;
78858;SDS011;68210;52.032;4.634;2024-01-30T06:37:04;12.38;;;7.22;;
78858;SDS011;68210;52.032;4.634;2024-01-30T06:39:04;10.57;;;7.13;;
78858;SDS011;68210;52.032;4.634;2024-01-30T06:41:05;14.13;;;7.03;;
78858;SDS011;68210;52.032;4.634;2024-01-30T06:43:06;13.57;;;7.63;;
78858;SDS011;68210;52.032;4.634;2024-01-30T06:45:07;13.15;;;6.47;;
78858;SDS011;68210;52.032;4.634;2024-01-30T06:47:08;15.10;;;7.53;;
78858;SDS011;68210;52.032;4.634;2024-01-30T06:49:09;12.75;;;7.38;;
78858;SDS011;68210;52.032;4.634;2024-01-30T06:51:09;12.38;;;7.50;;
78858;SDS011;68210;52.032;4.634;2024-01-30T06:53:10;13.55;;;7.22;;
78858;SDS011;68210;52.032;4.634;2024-01-30T06:55:11;13.38;;;7.38;;
78858;SDS011;68210;52.032;4.634;2024-01-30T06:57:11;13.30;;;7.80;;
78858;SDS011;68210;52.032;4.634;2024-01-30T06:59:14;11.70;;;6.75;;
78858;SDS011;68210;52.032;4.634;2024-01-30T07:01:14;11.35;;;6.97;;
78858;SDS011;68210;52.032;4.634;2024-01-30T07:03:15;13.80;;;7.57;;
78858;SDS011;68210;52.032;4.634;2024-01-30T07:05:16;13.20;;;7.55;;
78858;SDS011;68210;52.032;4.634;2024-01-30T07:07:17;15.50;;;9.00;;
78858;SDS011;68210;52.032;4.634;2024-01-30T07:09:17;11.55;;;7.47;;
78858;SDS011;68210;52.032;4.634;2024-01-30T07:11:18;14.45;;;8.88;;
78858;SDS011;68210;52.032;4.634;2024-01-30T07:13:20;15.73;;;7.75;;
78858;SDS011;68210;52.032;4.634;2024-01-30T07:15:20;10.73;;;7.00;;
78858;SDS011;68210;52.032;4.634;2024-01-30T07:17:20;13.60;;;7.57;;
78858;SDS011;68210;52.032;4.634;2024-01-30T07:19:21;15.32;;;7.10;;
78858;SDS011;68210;52.032;4.634;2024-01-30T07:21:21;14.38;;;7.15;;
78858;SDS011;68210;52.032;4.634;2024-01-30T07:23:27;18.10;;;7.47;;
78858;SDS011;68210;52.032;4.634;2024-01-30T07:25:29;12.23;;;6.82;;
78858;SDS011;68210;52.032;4.634;2024-01-30T07:27:29;12.70;;;7.40;;
78858;SDS011;68210;52.032;4.634;2024-01-30T07:29:30;13.35;;;6.90;;
78858;SDS011;68210;52.032;4.634;2024-01-30T07:31:30;19.05;;;7.03;;
78858;SDS011;68210;52.032;4.634;2024-01-30T07:33:31;11.98;;;7.13;;
78858;SDS011;68210;52.032;4.634;2024-01-30T07:35:31;15.43;;;7.15;;
78858;SDS011;68210;52.032;4.634;2024-01-30T07:37:33;19.63;;;7.68;;
78858;SDS011;68210;52.032;4.634;2024-01-30T07:39:34;10.80;;;6.35;;
78858;SDS011;68210;52.032;4.634;2024-01-30T07:41:34;13.27;;;7.00;;
78858;SDS011;68210;52.032;4.634;2024-01-30T07:43:35;13.73;;;7.15;;
78858;SDS011;68210;52.032;4.634;2024-01-30T07:45:35;17.77;;;7.40;;
78858;SDS011;68210;52.032;4.634;2024-01-30T07:47:37;11.63;;;6.88;;
78858;SDS011;68210;52.032;4.634;2024-01-30T07:49:40;15.55;;;7.20;;
78858;SDS011;68210;52.032;4.634;2024-01-30T07:51:42;16.90;;;6.60;;
78858;SDS011;68210;52.032;4.634;2024-01-30T07:53:43;12.10;;;6.10;;
78858;SDS011;68210;52.032;4.634;2024-01-30T07:55:45;10.82;;;6.70;;
78858;SDS011;68210;52.032;4.634;2024-01-30T07:57:46;11.10;;;6.43;;
78858;SDS011;68210;52.032;4.634;2024-01-30T07:59:47;13.20;;;6.18;;
78858;SDS011;68210;52.032;4.634;2024-01-30T08:01:47;14.52;;;6.85;;
78858;SDS011;68210;52.032;4.634;2024-01-30T08:04:09;16.33;;;6.75;;
78858;SDS011;68210;52.032;4.634;2024-01-30T08:06:09;13.30;;;6.60;;
78858;SDS011;68210;52.032;4.634;2024-01-30T08:08:10;13.57;;;6.05;;
78858;SDS011;68210;52.032;4.634;2024-01-30T08:10:11;15.43;;;6.45;;
78858;SDS011;68210;52.032;4.634;2024-01-30T08:12:13;14.23;;;6.47;;
78858;SDS011;68210;52.032;4.634;2024-01-30T08:14:13;12.48;;;6.53;;
78858;SDS011;68210;52.032;4.634;2024-01-30T08:16:14;14.38;;;7.00;;
78858;SDS011;68210;52.032;4.634;2024-01-30T08:18:15;12.73;;;6.78;;
78858;SDS011;68210;52.032;4.634;2024-01-30T08:20:16;16.42;;;6.55;;
78858;SDS011;68210;52.032;4.634;2024-01-30T08:22:16;14.57;;;6.63;;
78858;SDS011;68210;52.032;4.634;2024-01-30T08:24:20;13.38;;;6.97;;
78858;SDS011;68210;52.032;4.634;2024-01-30T08:26:20;14.02;;;6.45;;
78858;SDS011;68210;52.032;4.634;2024-01-30T08:28:20;11.95;;;6.60;;
78858;SDS011;68210;52.032;4.634;2024-01-30T08:30:21;13.73;;;6.50;;
78858;SDS011;68210;52.032;4.634;2024-01-30T08:32:21;12.13;;;5.88;;
78858;SDS011;68210;52.032;4.634;2024-01-30T08:34:21;10.43;;;6.60;;
78858;SDS011;68210;52.032;4.634;2024-01-30T08:36:22;16.40;;;6.95;;
78858;SDS011;68210;52.032;4.634;2024-01-30T08:38:22;16.63;;;7.18;;
78858;SDS011;68210;52.032;4.634;2024-01-30T08:40:22;17.67;;;6.75;;
78858;SDS011;68210;52.032;4.634;2024-01-30T08:42:23;12.52;;;6.93;;
78858;SDS011;68210;52.032;4.634;2024-01-30T08:44:23;11.30;;;5.93;;
78858;SDS011;68210;52.032;4.634;2024-01-30T08:46:24;17.23;;;6.32;;
78858;SDS011;68210;52.032;4.634;2024-01-30T08:48:24;12.10;;;5.60;;
78858;SDS011;68210;52.032;4.634;2024-01-30T08:50:25;13.00;;;6.25;;
78858;SDS011;68210;52.032;4.634;2024-01-30T08:52:25;10.73;;;6.13;;
78858;SDS011;68210;52.032;4.634;2024-01-30T08:54:25;13.88;;;6.35;;
78858;SDS011;68210;52.032;4.634;2024-01-30T08:56:26;10.27;;;6.40;;
78858;SDS011;68210;52.032;4.634;2024-01-30T08:58:26;12.40;;;6.38;;
78858;SDS011;68210;52.032;4.634;2024-01-30T09:00:27;13.35;;;5.93;;
78858;SDS011;68210;52.032;4.634;2024-01-30T09:02:28;12.80;;;6.20;;
78858;SDS011;68210;52.032;4.634;2024-01-30T09:04:28;15.40;;;7.15;;
78858;SDS011;68210;52.032;4.634;2024-01-30T09:06:30;14.35;;;6.60;;
78858;SDS011;68210;52.032;4.634;2024-01-30T09:08:31;12.18;;;7.03;;
78858;SDS011;68210;52.032;4.634;2024-01-30T09:10:31;17.00;;;6.45;;
78858;SDS011;68210;52.032;4.634;2024-01-30T09:12:31;13.95;;;6.80;;
78858;SDS011;68210;52.032;4.634;2024-01-30T09:14:32;15.32;;;6.57;;
78858;SDS011;68210;52.032;4.634;2024-01-30T09:16:32;12.50;;;6.60;;
78858;SDS011;68210;52.032;4.634;2024-01-30T09:18:33;14.00;;;7.32;;
78858;SDS011;68210;52.032;4.634;2024-01-30T09:20:33;15.30;;;7.07;;
78858;SDS011;68210;52.032;4.634;2024-01-30T09:22:34;15.18;;;7.00;;
78858;SDS011;68210;52.032;4.634;2024-01-30T09:24:34;10.48;;;6.55;;
78858;SDS011;68210;52.032;4.634;2024-01-30T09:26:34;13.65;;;7.28;;
78858;SDS011;68210;52.032;4.634;2024-01-30T09:28:35;12.15;;;6.50;;
78858;SDS011;68210;52.032;4.634;2024-01-30T09:30:35;18.02;;;8.20;;
78858;SDS011;68210;52.032;4.634;2024-01-30T09:32:36;17.40;;;7.38;;
78858;SDS011;68210;52.032;4.634;2024-01-30T09:34:36;14.88;;;6.50;;
78858;SDS011;68210;52.032;4.634;2024-01-30T09:36:37;10.13;;;5.72;;
78858;SDS011;68210;52.032;4.634;2024-01-30T09:38:37;14.35;;;6.43;;
78858;SDS011;68210;52.032;4.634;2024-01-30T09:40:38;10.45;;;6.07;;
78858;SDS011;68210;52.032;4.634;2024-01-30T09:42:38;15.38;;;6.80;;
78858;SDS011;68210;52.032;4.634;2024-01-30T09:44:40;16.48;;;6.85;;
78858;SDS011;68210;52.032;4.634;2024-01-30T09:46:43;13.82;;;7.05;;
78858;SDS011;68210;52.032;4.634;2024-01-30T09:48:47;12.55;;;6.25;;
78858;SDS011;68210;52.032;4.634;2024-01-30T09:50:48;11.70;;;7.53;;
78858;SDS011;68210;52.032;4.634;2024-01-30T09:52:48;14.38;;;6.05;;
78858;SDS011;68210;52.032;4.634;2024-01-30T09:54:49;9.50;;;3.97;;
78858;SDS011;68210;52.032;4.634;2024-01-30T09:56:51;11.65;;;3.45;;
78858;SDS011;68210;52.032;4.634;2024-01-30T09:58:52;11.93;;;4.07;;
78858;SDS011;68210;52.032;4.634;2024-01-30T10:00:52;13.63;;;4.63;;
78858;SDS011;68210;52.032;4.634;2024-01-30T10:02:53;12.00;;;4.05;;
78858;SDS011;68210;52.032;4.634;2024-01-30T10:04:54;8.68;;;3.25;;
78858;SDS011;68210;52.032;4.634;2024-01-30T10:06:54;10.55;;;4.00;;
78858;SDS011;68210;52.032;4.634;2024-01-30T10:08:55;13.77;;;3.83;;
78858;SDS011;68210;52.032;4.634;2024-01-30T10:10:55;6.55;;;2.42;;
78858;SDS011;68210;52.032;4.634;2024-01-30T10:12:56;8.38;;;2.63;;
78858;SDS011;68210;52.032;4.634;2024-01-30T10:14:56;11.55;;;3.05;;
78858;SDS011;68210;52.032;4.634;2024-01-30T10:16:57;13.75;;;2.85;;
78858;SDS011;68210;52.032;4.634;2024-01-30T10:18:58;9.73;;;3.15;;
78858;SDS011;68210;52.032;4.634;2024-01-30T10:20:59;10.50;;;2.30;;
78858;SDS011;68210;52.032;4.634;2024-01-30T10:22:59;7.38;;;2.00;;
78858;SDS011;68210;52.032;4.634;2024-01-30T10:25:00;7.53;;;2.00;;
78858;SDS011;68210;52.032;4.634;2024-01-30T10:27:00;9.95;;;2.40;;
78858;SDS011;68210;52.032;4.634;2024-01-30T10:29:00;10.90;;;2.55;;
78858;SDS011;68210;52.032;4.634;2024-01-30T10:31:02;10.60;;;2.30;;
78858;SDS011;68210;52.032;4.634;2024-01-30T10:33:10;7.15;;;2.15;;
78858;SDS011;68210;52.032;4.634;2024-01-30T10:35:10;7.82;;;2.58;;
78858;SDS011;68210;52.032;4.634;2024-01-30T10:37:11;7.97;;;1.83;;
78858;SDS011;68210;52.032;4.634;2024-01-30T10:39:17;10.35;;;1.98;;
78858;SDS011;68210;52.032;4.634;2024-01-30T10:41:27;6.72;;;1.75;;
78858;SDS011;68210;52.032;4.634;2024-01-30T10:43:40;6.93;;;1.90;;
78858;SDS011;68210;52.032;4.634;2024-01-30T10:45:43;10.07;;;2.10;;
78858;SDS011;68210;52.032;4.634;2024-01-30T10:47:50;5.10;;;2.25;;
78858;SDS011;68210;52.032;4.634;2024-01-30T10:49:52;9.82;;;2.97;;
78858;SDS011;68210;52.032;4.634;2024-01-30T10:51:54;5.05;;;2.55;;
78858;SDS011;68210;52.032;4.634;2024-01-30T10:53:56;5.22;;;2.33;;
78858;SDS011;68210;52.032;4.634;2024-01-30T10:55:56;4.05;;;2.45;;
78858;SDS011;68210;52.032;4.634;2024-01-30T10:57:58;5.65;;;1.88;;
78858;SDS011;68210;52.032;4.634;2024-01-30T11:00:00;4.70;;;2.05;;
78858;SDS011;68210;52.032;4.634;2024-01-30T11:02:05;7.25;;;2.83;;
78858;SDS011;68210;52.032;4.634;2024-01-30T11:04:07;8.02;;;2.22;;
78858;SDS011;68210;52.032;4.634;2024-01-30T11:06:12;10.05;;;2.85;;
78858;SDS011;68210;52.032;4.634;2024-01-30T11:08:14;3.05;;;1.77;;
78858;SDS011;68210;52.032;4.634;2024-01-30T11:10:14;3.80;;;1.90;;
78858;SDS011;68210;52.032;4.634;2024-01-30T11:12:15;4.30;;;2.22;;
78858;SDS011;68210;52.032;4.634;2024-01-30T11:14:15;5.95;;;2.33;;
78858;SDS011;68210;52.032;4.634;2024-01-30T11:16:16;4.35;;;1.38;;
78858;SDS011;68210;52.032;4.634;2024-01-30T11:18:26;2.22;;;0.93;;
78858;SDS011;68210;52.032;4.634;2024-01-30T11:20:31;2.63;;;0.95;;
78858;SDS011;68210;52.032;4.634;2024-01-30T11:22:32;4.97;;;0.90;;
78858;SDS011;68210;52.032;4.634;2024-01-30T11:24:40;2.13;;;1.00;;
78858;SDS011;68210;52.032;4.634;2024-01-30T11:26:44;2.38;;;1.00;;
78858;SDS011;68210;52.032;4.634;2024-01-30T11:28:45;4.75;;;0.85;;
78858;SDS011;68210;52.032;4.634;2024-01-30T11:31:02;3.83;;;0.95;;
78858;SDS011;68210;52.032;4.634;2024-01-30T11:33:07;5.40;;;1.25;;
78858;SDS011;68210;52.032;4.634;2024-01-30T11:35:11;4.10;;;0.85;;
78858;SDS011;68210;52.032;4.634;2024-01-30T11:37:12;9.18;;;1.10;;
78858;SDS011;68210;52.032;4.634;2024-01-30T11:39:15;2.25;;;0.90;;
78858;SDS011;68210;52.032;4.634;2024-01-30T11:41:17;4.63;;;1.05;;
78858;SDS011;68210;52.032;4.634;2024-01-30T11:43:18;4.78;;;0.88;;
78858;SDS011;68210;52.032;4.634;2024-01-30T11:45:19;6.70;;;1.10;;
78858;SDS011;68210;52.032;4.634;2024-01-30T11:47:19;3.80;;;1.02;;
78858;SDS011;68210;52.032;4.634;2024-01-30T11:49:19;5.30;;;1.15;;
78858;SDS011;68210;52.032;4.634;2024-01-30T11:51:20;6.45;;;1.02;;
78858;SDS011;68210;52.032;4.634;2024-01-30T11:53:20;6.07;;;1.10;;
78858;SDS011;68210;52.032;4.634;2024-01-30T11:55:21;4.13;;;1.02;;
78858;SDS011;68210;52.032;4.634;2024-01-30T11:57:21;3.85;;;0.70;;